createdAt,value
2022-08-09T00:01:10.474Z,15.70
2022-08-09T00:04:05.800Z,16.17
2022-08-09T00:06:37.810Z,15.27
2022-08-09T00:09:09.477Z,14.93
2022-08-09T00:12:02.650Z,15.23
2022-08-09T00:14:38.309Z,14.63
2022-08-09T00:17:10.281Z,14.00
2022-08-09T00:20:02.049Z,15.55
2022-08-09T00:22:36.299Z,14.40
2022-08-09T00:25:12.670Z,14.43
2022-08-09T00:27:48.004Z,14.23
2022-08-09T00:30:25.633Z,14.18
2022-08-09T00:32:58.486Z,14.57
2022-08-09T00:35:42.890Z,14.27
2022-08-09T00:38:15.538Z,13.07
2022-08-09T00:40:52.910Z,11.48
2022-08-09T00:44:14.247Z,11.30
2022-08-09T00:46:56.040Z,10.90
2022-08-09T00:49:10.964Z,10.57
2022-08-09T00:51:56.135Z,11.35
2022-08-09T00:54:35.190Z,11.10
2022-08-09T00:57:10.547Z,11.00
2022-08-09T00:59:52.253Z,10.88
2022-08-09T01:02:30.354Z,10.50
2022-08-09T01:05:14.403Z,9.98
2022-08-09T01:08:00.332Z,9.98
2022-08-09T01:11:20.681Z,10.50
2022-08-09T01:14:29.112Z,9.82
2022-08-09T01:17:21.210Z,9.77
2022-08-09T01:20:04.554Z,9.63
2022-08-09T01:23:12.453Z,8.77
2022-08-09T01:26:23.992Z,8.20
2022-08-09T01:28:59.286Z,8.85
2022-08-09T01:32:32.230Z,7.97
2022-08-09T01:34:28.395Z,8.85
2022-08-09T01:37:04.251Z,8.30
2022-08-09T01:39:40.176Z,7.55
2022-08-09T01:42:12.167Z,6.32
2022-08-09T01:44:45.385Z,8.15
2022-08-09T01:47:24.686Z,7.05
2022-08-09T01:50:06.542Z,7.30
2022-08-09T01:52:43.409Z,6.57
2022-08-09T01:55:15.960Z,6.78
2022-08-09T01:57:53.018Z,6.55
2022-08-09T02:00:35.440Z,6.10
2022-08-09T02:03:10.572Z,6.03
2022-08-09T02:06:03.916Z,6.18
2022-08-09T02:08:58.782Z,5.25
2022-08-09T02:11:40.356Z,6.05
2022-08-09T02:14:26.385Z,6.05
2022-08-09T02:17:15.435Z,5.85
2022-08-09T02:19:52.306Z,5.75
2022-08-09T02:23:01.659Z,5.05
2022-08-09T02:25:42.641Z,5.57
2022-08-09T02:28:29.797Z,5.00
2022-08-09T02:31:06.212Z,5.28
2022-08-09T02:34:07.354Z,5.28
2022-08-09T02:36:45.313Z,5.10
2022-08-09T02:39:33.464Z,4.88
2022-08-09T02:42:18.390Z,4.63
2022-08-09T02:44:54.775Z,4.63
2022-08-09T02:47:27.650Z,4.80
2022-08-09T02:50:13.848Z,4.63
2022-08-09T02:52:59.141Z,4.80
2022-08-09T02:55:46.747Z,4.50
2022-08-09T02:58:32.786Z,5.00
2022-08-09T03:01:15.231Z,4.68
2022-08-09T03:04:16.628Z,4.45
2022-08-09T03:06:50.866Z,5.15
2022-08-09T03:09:23.895Z,4.13
2022-08-09T03:12:06.320Z,4.45
2022-08-09T03:14:44.507Z,3.97
2022-08-09T03:17:20.481Z,4.10
2022-08-09T03:20:03.204Z,4.32
2022-08-09T03:22:43.619Z,5.03
2022-08-09T03:25:27.037Z,4.72
2022-08-09T03:28:11.143Z,4.43
2022-08-09T03:30:44.306Z,4.45
2022-08-09T03:33:21.749Z,4.05
2022-08-09T03:36:15.956Z,4.10
2022-08-09T03:41:18.818Z,3.85
2022-08-09T03:44:03.606Z,4.30
2022-08-09T03:46:40.466Z,4.32
2022-08-09T03:49:17.314Z,4.38
2022-08-09T03:51:57.793Z,3.85
2022-08-09T03:54:39.026Z,4.10
2022-08-09T03:57:19.978Z,3.85
2022-08-09T04:00:00.538Z,3.85
2022-08-09T04:02:45.150Z,4.05
2022-08-09T04:05:27.435Z,4.53
2022-08-09T04:07:59.609Z,3.72
2022-08-09T04:10:31.291Z,3.25
2022-08-09T04:15:52.000Z,3.38
2022-08-09T04:18:28.214Z,3.58
2022-08-09T04:20:59.907Z,3.47
2022-08-09T04:23:31.513Z,3.55
2022-08-09T04:26:05.428Z,3.63
2022-08-09T04:28:37.034Z,4.00
2022-08-09T04:31:14.162Z,3.30
2022-08-09T04:33:51.452Z,3.65
2022-08-09T04:36:26.968Z,3.47
2022-08-09T04:39:01.482Z,3.33
2022-08-09T04:41:43.688Z,3.15
2022-08-09T04:44:15.791Z,3.30
2022-08-09T04:46:58.433Z,3.30
2022-08-09T04:49:53.090Z,3.17
2022-08-09T04:52:31.161Z,3.00
2022-08-09T04:55:06.801Z,3.20
2022-08-09T04:57:58.541Z,2.80
2022-08-09T05:00:34.345Z,3.22
2022-08-09T05:03:30.717Z,2.92
2022-08-09T05:06:06.569Z,2.70
2022-08-09T05:08:39.117Z,2.88
2022-08-09T05:11:15.717Z,2.63
2022-08-09T05:13:47.586Z,2.15
2022-08-09T05:16:20.561Z,2.70
2022-08-09T05:19:03.531Z,2.53
2022-08-09T05:21:47.394Z,2.88
2022-08-09T05:24:27.546Z,2.55
2022-08-09T05:29:35.416Z,1.80
2022-08-09T05:32:07.867Z,2.80
2022-08-09T05:34:42.925Z,2.40
2022-08-09T05:37:17.419Z,2.65
2022-08-09T05:39:49.119Z,2.65
2022-08-09T05:42:27.888Z,2.50
2022-08-09T05:45:01.743Z,2.63
2022-08-09T05:47:33.719Z,1.95
2022-08-09T05:50:26.004Z,2.58
2022-08-09T05:52:57.415Z,2.92
2022-08-09T05:55:29.543Z,2.22
2022-08-09T05:58:07.155Z,1.90
2022-08-09T06:00:39.424Z,2.10
2022-08-09T06:03:12.110Z,2.05
2022-08-09T06:06:04.361Z,3.13
2022-08-09T06:08:37.630Z,1.98
2022-08-09T06:11:16.325Z,2.20
2022-08-09T06:13:48.717Z,2.47
2022-08-09T06:16:20.368Z,1.67
2022-08-09T06:18:52.263Z,1.90
2022-08-09T06:24:02.524Z,1.90
2022-08-09T06:26:36.066Z,2.10
2022-08-09T06:29:14.949Z,1.80
2022-08-09T06:32:08.455Z,1.95
2022-08-09T06:34:38.743Z,1.80
2022-08-09T06:37:10.407Z,1.83
2022-08-09T06:39:58.038Z,2.17
2022-08-09T06:42:33.584Z,1.80
2022-08-09T06:46:04.677Z,1.90
2022-08-09T06:48:01.455Z,2.20
2022-08-09T06:50:34.423Z,2.17
2022-08-09T06:53:08.014Z,2.05
2022-08-09T06:55:43.494Z,2.00
2022-08-09T06:58:40.572Z,1.73
2022-08-09T07:01:11.951Z,2.60
2022-08-09T07:03:53.162Z,1.83
2022-08-09T07:06:25.497Z,1.98
2022-08-09T07:08:59.646Z,2.25
2022-08-09T07:11:34.294Z,1.98
2022-08-09T07:14:26.488Z,1.77
2022-08-09T07:16:59.243Z,1.60
2022-08-09T07:19:30.912Z,1.63
2022-08-09T07:24:40.288Z,2.67
2022-08-09T07:27:27.274Z,1.38
2022-08-09T07:30:06.549Z,1.73
2022-08-09T07:32:38.940Z,1.77
2022-08-09T07:35:15.132Z,2.72
2022-08-09T07:37:49.345Z,2.33
2022-08-09T07:40:27.027Z,2.30
2022-08-09T07:43:03.055Z,2.95
2022-08-09T07:45:39.828Z,3.00
2022-08-09T07:48:25.288Z,3.08
2022-08-09T07:52:02.596Z,2.80
2022-08-09T07:54:04.388Z,2.75
2022-08-09T07:56:45.126Z,3.95
2022-08-09T07:59:34.901Z,4.50
2022-08-09T08:02:19.355Z,4.50
2022-08-09T08:04:53.859Z,5.03
2022-08-09T08:08:43.694Z,4.40
2022-08-09T08:10:18.288Z,4.68
2022-08-09T08:12:50.634Z,4.68
2022-08-09T08:17:58.539Z,4.38
2022-08-09T08:20:33.281Z,5.28
2022-08-09T08:23:16.821Z,4.45
2022-08-09T08:25:54.330Z,4.93
2022-08-09T08:28:39.242Z,5.35
2022-08-09T08:31:14.819Z,5.72
2022-08-09T08:33:52.246Z,4.95
2022-08-09T08:36:29.128Z,5.80
2022-08-09T08:39:02.639Z,5.65
2022-08-09T08:41:51.168Z,5.90
2022-08-09T08:44:29.016Z,5.25
2022-08-09T08:47:04.850Z,5.40
2022-08-09T08:49:47.940Z,6.22
2022-08-09T08:52:58.357Z,5.18
2022-08-09T08:55:23.535Z,6.45
2022-08-09T08:57:58.233Z,5.32
2022-08-09T09:00:34.514Z,6.07
2022-08-09T09:03:08.757Z,6.85
2022-08-09T09:06:03.359Z,6.72
2022-08-09T09:08:42.450Z,6.38
2022-08-09T09:11:17.608Z,5.43
2022-08-09T09:13:57.753Z,5.88
2022-08-09T09:16:35.680Z,6.72
2022-08-09T09:19:40.727Z,6.43
2022-08-09T09:22:12.625Z,6.32
2022-08-09T09:24:49.735Z,6.40
2022-08-09T09:28:03.703Z,7.20
2022-08-09T09:30:39.811Z,7.00
2022-08-09T09:33:17.098Z,7.22
2022-08-09T09:36:02.320Z,6.93
2022-08-09T09:38:59.650Z,7.60
2022-08-09T09:41:39.995Z,7.40
2022-08-09T09:44:34.406Z,8.30
2022-08-09T09:47:10.600Z,7.95
2022-08-09T09:49:56.190Z,9.10
2022-08-09T09:52:36.888Z,8.57
2022-08-09T09:55:27.662Z,8.73
2022-08-09T09:58:19.274Z,9.18
2022-08-09T10:01:00.171Z,8.93
2022-08-09T10:03:57.113Z,9.77
2022-08-09T10:06:42.899Z,9.55
2022-08-09T10:09:23.418Z,10.43
2022-08-09T10:12:12.195Z,9.35
2022-08-09T10:14:48.471Z,9.55
2022-08-09T10:17:54.920Z,11.02
2022-08-09T10:20:32.875Z,9.40
2022-08-09T10:23:22.772Z,8.43
2022-08-09T10:26:06.219Z,9.80
2022-08-09T10:28:41.727Z,8.85
2022-08-09T10:34:32.836Z,8.10
2022-08-09T10:39:40.359Z,8.95
2022-08-09T10:42:20.569Z,8.95
2022-08-09T10:44:59.157Z,8.18
2022-08-09T10:48:26.033Z,9.02
2022-08-09T10:51:06.923Z,8.60
2022-08-09T10:54:12.157Z,8.50
2022-08-09T10:56:45.264Z,8.50
2022-08-09T10:59:31.071Z,8.80
2022-08-09T11:03:13.914Z,9.40
2022-08-09T11:05:25.062Z,8.57
2022-08-09T11:08:46.982Z,8.90
2022-08-09T11:11:21.284Z,9.30
2022-08-09T11:14:31.922Z,9.32
2022-08-09T11:17:05.182Z,9.48
2022-08-09T11:20:10.480Z,9.70
2022-08-09T11:22:57.121Z,8.27
2022-08-09T11:25:47.942Z,8.75
2022-08-09T11:28:54.302Z,9.43
2022-08-09T11:31:53.145Z,8.82
2022-08-09T11:34:38.039Z,8.70
2022-08-09T11:37:18.274Z,9.27
2022-08-09T11:40:18.092Z,9.05
2022-08-09T11:42:54.515Z,9.50
2022-08-09T11:45:45.855Z,9.52
2022-08-09T11:48:26.234Z,9.20
2022-08-09T11:51:19.383Z,8.75
2022-08-09T11:54:28.152Z,8.55
2022-08-09T11:58:02.258Z,8.02
2022-08-09T12:00:36.581Z,6.85
2022-08-09T12:03:54.717Z,7.82
2022-08-09T12:06:26.784Z,8.30
2022-08-09T12:09:19.732Z,7.68
2022-08-09T12:12:04.020Z,7.95
2022-08-09T12:15:03.652Z,8.60
2022-08-09T12:17:41.711Z,9.95
2022-08-09T12:20:21.748Z,9.02
2022-08-09T12:23:01.322Z,9.48
2022-08-09T12:25:38.199Z,10.88
2022-08-09T12:29:10.892Z,10.55
2022-08-09T12:31:58.838Z,11.45
2022-08-09T12:34:35.708Z,10.55
2022-08-09T12:37:21.376Z,11.77
2022-08-09T12:40:13.757Z,11.55
2022-08-09T12:42:50.409Z,11.98
2022-08-09T12:45:34.298Z,12.60
2022-08-09T12:48:28.024Z,11.40
2022-08-09T12:51:03.971Z,12.10
2022-08-09T12:53:40.972Z,12.30
2022-08-09T12:56:40.039Z,13.98
2022-08-09T12:59:24.973Z,15.77
2022-08-09T13:02:16.620Z,15.20
2022-08-09T13:05:03.659Z,15.93
2022-08-09T13:07:51.219Z,16.80
2022-08-09T13:10:24.286Z,16.75
2022-08-09T13:13:09.542Z,17.23
2022-08-09T13:16:11.647Z,17.10
2022-08-09T13:18:56.333Z,16.53
2022-08-09T13:22:35.263Z,18.33
2022-08-09T13:24:53.455Z,18.38
2022-08-09T13:27:48.167Z,19.52
2022-08-09T13:30:50.226Z,22.85
2022-08-09T13:33:35.980Z,22.85
2022-08-09T13:36:38.979Z,24.63
2022-08-09T13:41:18.989Z,23.50
2022-08-09T13:42:12.223Z,21.50
2022-08-09T13:44:45.412Z,19.42
2022-08-09T13:47:33.457Z,20.10
2022-08-09T13:50:29.981Z,19.52
2022-08-09T13:53:02.563Z,18.25
2022-08-09T13:55:36.917Z,17.55
2022-08-09T13:58:11.580Z,15.80
2022-08-09T14:00:50.653Z,18.30
2022-08-09T14:04:01.648Z,16.52
2022-08-09T14:06:26.434Z,15.55
2022-08-09T14:08:58.751Z,15.95
2022-08-09T14:11:30.416Z,14.90
2022-08-09T14:14:15.566Z,14.00
2022-08-09T14:16:54.994Z,13.40
2022-08-09T14:19:27.056Z,13.15
2022-08-09T14:22:05.091Z,12.63
2022-08-09T14:27:58.789Z,12.18
2022-08-09T14:30:36.746Z,11.23
2022-08-09T14:33:13.495Z,12.13
2022-08-09T14:35:53.462Z,11.32
2022-08-09T14:38:25.166Z,12.13
2022-08-09T14:41:01.062Z,10.95
2022-08-09T14:43:47.618Z,10.00
2022-08-09T14:46:57.171Z,10.02
2022-08-09T14:49:17.436Z,10.15
2022-08-09T14:54:22.530Z,9.75
2022-08-09T14:57:00.065Z,9.43
2022-08-09T15:02:10.390Z,9.30
2022-08-09T15:04:44.168Z,9.20
2022-08-09T15:07:19.434Z,8.18
2022-08-09T15:12:35.418Z,8.77
2022-08-09T15:15:08.828Z,8.52
2022-08-09T15:17:47.251Z,7.88
2022-08-09T15:21:57.003Z,8.13
2022-08-09T15:24:00.839Z,8.13
2022-08-09T15:26:18.922Z,8.07
2022-08-09T15:29:05.540Z,8.40
2022-08-09T15:31:41.464Z,7.88
2022-08-09T15:34:32.372Z,7.85
2022-08-09T15:37:37.067Z,8.27
2022-08-09T15:43:01.924Z,8.73
2022-08-09T15:46:07.334Z,7.80
2022-08-09T15:48:29.021Z,7.75
2022-08-09T15:51:30.002Z,7.57
2022-08-09T15:54:05.304Z,7.15
2022-08-09T15:56:45.129Z,8.80
2022-08-09T15:59:25.281Z,9.20
2022-08-09T16:02:09.107Z,8.95
2022-08-09T16:04:44.941Z,8.73
2022-08-09T16:07:23.494Z,8.40
2022-08-09T16:10:04.657Z,7.90
2022-08-09T16:12:41.570Z,7.82
2022-08-09T16:16:10.788Z,7.45
2022-08-09T16:18:13.741Z,7.65
2022-08-09T16:20:46.673Z,7.68
2022-08-09T16:23:19.821Z,7.80
2022-08-09T16:25:54.778Z,8.15
2022-08-09T16:28:34.211Z,7.47
2022-08-09T16:31:15.997Z,6.85
2022-08-09T16:33:48.028Z,7.20
2022-08-09T16:36:21.080Z,6.15
2022-08-09T16:38:57.572Z,6.13
2022-08-09T16:42:02.873Z,5.90
2022-08-09T16:44:22.142Z,5.87
2022-08-09T16:47:04.143Z,6.20
2022-08-09T16:50:29.230Z,6.22
2022-08-09T16:52:43.612Z,6.50
2022-08-09T16:55:15.707Z,6.22
2022-08-09T16:58:08.567Z,6.13
2022-08-09T17:00:42.989Z,6.72
2022-08-09T17:03:21.954Z,5.93
2022-08-09T17:06:06.558Z,5.93
2022-08-09T17:09:01.576Z,6.57
2022-08-09T17:11:41.759Z,6.75
2022-08-09T17:14:26.037Z,6.95
2022-08-09T17:17:25.998Z,6.80
2022-08-09T17:20:32.308Z,6.13
2022-08-09T17:22:49.879Z,6.60
2022-08-09T17:25:23.504Z,5.75
2022-08-09T17:27:55.866Z,5.97
2022-08-09T17:30:30.685Z,6.90
2022-08-09T17:33:22.601Z,7.60
2022-08-09T17:35:54.599Z,6.80
2022-08-09T17:38:32.456Z,6.60
2022-08-09T17:41:08.489Z,5.63
2022-08-09T17:43:40.104Z,6.20
2022-08-09T17:48:51.644Z,6.40
2022-08-09T17:51:24.505Z,6.15
2022-08-09T17:54:02.861Z,6.53
2022-08-09T17:56:37.097Z,6.63
2022-08-09T17:59:11.873Z,5.95
2022-08-09T18:02:07.721Z,5.32
2022-08-09T18:04:39.942Z,5.40
2022-08-09T18:07:23.207Z,5.25
2022-08-09T18:10:04.865Z,4.93
2022-08-09T18:12:40.897Z,4.90
2022-08-09T18:16:05.227Z,4.78
2022-08-09T18:18:25.895Z,4.70
2022-08-09T18:21:18.944Z,4.60
2022-08-09T18:24:10.889Z,4.93
2022-08-09T18:26:48.224Z,4.50
2022-08-09T18:30:40.546Z,4.35
2022-08-09T18:32:13.082Z,4.38
2022-08-09T18:34:44.934Z,4.57
2022-08-09T18:37:48.002Z,3.58
2022-08-09T18:40:08.524Z,3.80
2022-08-09T18:42:43.016Z,5.00
2022-08-09T18:46:44.963Z,4.22
2022-08-09T18:48:08.774Z,4.35
2022-08-09T18:50:40.040Z,4.13
2022-08-09T18:53:13.512Z,4.72
2022-08-09T18:55:56.836Z,4.18
2022-08-09T18:58:36.222Z,4.20
2022-08-09T19:01:11.512Z,4.13
2022-08-09T19:06:34.670Z,4.72
2022-08-09T19:09:13.488Z,4.25
2022-08-09T19:11:52.138Z,4.47
2022-08-09T19:14:29.167Z,4.35
2022-08-09T19:17:00.961Z,4.25
2022-08-09T19:19:41.406Z,4.15
2022-08-09T19:22:15.246Z,4.72
2022-08-09T19:25:11.305Z,4.32
2022-08-09T19:27:40.844Z,3.33
2022-08-09T19:30:22.030Z,4.57
2022-08-09T19:33:01.128Z,3.75
2022-08-09T19:35:57.423Z,3.95
2022-08-09T19:38:24.100Z,4.10
2022-08-09T19:40:56.738Z,3.75
2022-08-09T19:43:58.227Z,3.17
2022-08-09T19:46:35.830Z,3.10
2022-08-09T19:50:05.297Z,3.63
2022-08-09T19:52:04.273Z,3.45
2022-08-09T19:54:35.736Z,3.57
2022-08-09T19:57:08.338Z,3.13
2022-08-09T20:00:00.038Z,3.10
2022-08-09T20:04:11.715Z,3.10
2022-08-09T20:05:24.846Z,2.97
2022-08-09T20:08:05.086Z,2.95
2022-08-09T20:10:38.605Z,3.15
2022-08-09T20:13:11.715Z,2.72
2022-08-09T20:16:38.240Z,2.90
2022-08-09T20:18:34.437Z,2.25
2022-08-09T20:21:08.545Z,2.40
2022-08-09T20:23:40.259Z,2.60
2022-08-09T20:26:13.249Z,2.08
2022-08-09T20:28:50.028Z,2.63
2022-08-09T20:31:22.451Z,2.22
2022-08-09T20:33:58.368Z,3.58
2022-08-09T20:36:33.266Z,2.50
2022-08-09T20:39:28.084Z,2.53
2022-08-09T20:41:57.680Z,2.13
2022-08-09T20:44:32.179Z,2.40
2022-08-09T20:47:07.679Z,2.05
2022-08-09T20:49:59.058Z,2.03
2022-08-09T20:52:31.060Z,2.10
2022-08-09T20:55:07.192Z,2.28
2022-08-09T20:58:08.048Z,1.77
2022-08-09T21:00:36.727Z,2.15
2022-08-09T21:03:19.740Z,1.77
2022-08-09T21:05:59.455Z,2.20
2022-08-09T21:08:36.197Z,2.15
2022-08-09T21:14:00.493Z,2.30
2022-08-09T21:20:06.723Z,2.08
2022-08-09T21:21:57.537Z,1.65
2022-08-09T21:24:33.724Z,1.85
2022-08-09T21:27:50.359Z,1.92
2022-08-09T21:30:03.698Z,2.20
2022-08-09T21:32:35.533Z,2.20
2022-08-09T21:35:07.314Z,2.03
2022-08-09T21:37:40.601Z,2.17
2022-08-09T21:40:32.772Z,2.15
2022-08-09T21:43:06.231Z,2.40
2022-08-09T21:45:38.939Z,2.08
2022-08-09T21:48:11.238Z,1.88
2022-08-09T21:50:49.808Z,2.33
2022-08-09T21:53:40.206Z,2.13
2022-08-09T21:56:15.127Z,2.08
2022-08-09T21:59:03.938Z,2.15
2022-08-09T22:01:58.699Z,1.98
2022-08-09T22:04:56.505Z,2.20
2022-08-09T22:07:23.403Z,2.83
2022-08-09T22:10:13.432Z,2.35
2022-08-09T22:12:55.158Z,3.03
2022-08-09T22:15:34.818Z,2.50
2022-08-09T22:18:08.260Z,2.42
2022-08-09T22:20:43.969Z,2.25
2022-08-09T22:23:17.508Z,2.78
2022-08-09T22:26:07.083Z,2.35
2022-08-09T22:28:47.125Z,2.25
2022-08-09T22:31:25.396Z,2.83
2022-08-09T22:33:59.311Z,2.40
2022-08-09T22:36:45.473Z,2.00
2022-08-09T22:39:20.710Z,2.78
2022-08-09T22:42:21.205Z,2.30
2022-08-09T22:45:00.396Z,2.42
2022-08-09T22:48:17.011Z,2.20
2022-08-09T22:50:39.323Z,2.58
2022-08-09T22:53:10.770Z,2.42
2022-08-09T22:56:29.831Z,2.90
2022-08-09T22:58:34.428Z,2.70
2022-08-09T23:01:07.805Z,2.95
2022-08-09T23:04:02.433Z,3.03
2022-08-09T23:06:51.111Z,3.13
2022-08-09T23:09:22.906Z,2.80
2022-08-09T23:11:54.118Z,3.20
2022-08-09T23:14:37.611Z,3.50
2022-08-09T23:17:13.504Z,3.65
2022-08-09T23:20:06.975Z,3.10
2022-08-09T23:22:36.392Z,3.08
2022-08-09T23:25:08.536Z,2.90
2022-08-09T23:27:56.506Z,3.35
2022-08-09T23:30:31.535Z,3.65
2022-08-09T23:33:02.970Z,3.70
2022-08-09T23:36:05.128Z,4.07
2022-08-09T23:38:25.995Z,3.33
2022-08-09T23:40:57.926Z,3.57
2022-08-09T23:43:29.314Z,3.30
2022-08-09T23:46:00.777Z,2.90
2022-08-09T23:48:32.730Z,3.13
2022-08-09T23:51:04.013Z,3.60
2022-08-09T23:53:35.278Z,3.20
2022-08-09T23:56:09.284Z,3.30
2022-08-09T23:58:40.911Z,3.42
